sensor_id;sensor_type;location;lat;lon;timestamp;P1;durP1;ratioP1;P2;durP2;ratioP2
4700;SDS011;8724;51.272;6.554;2024-02-15T00:00:18;3.83;;;3.00;;
4700;SDS011;8724;51.272;6.554;2024-02-15T00:02:47;4.47;;;3.37;;
4700;SDS011;8724;51.272;6.554;2024-02-15T00:05:18;4.13;;;2.90;;
4700;SDS011;8724;51.272;6.554;2024-02-15T00:07:46;3.73;;;2.87;;
4700;SDS011;8724;51.272;6.554;2024-02-15T00:10:15;3.70;;;3.03;;
4700;SDS011;8724;51.272;6.554;2024-02-15T00:12:43;6.57;;;3.20;;
4700;SDS011;8724;51.272;6.554;2024-02-15T00:15:12;5.43;;;3.30;;
4700;SDS011;8724;51.272;6.554;2024-02-15T00:17:40;4.50;;;2.90;;
4700;SDS011;8724;51.272;6.554;2024-02-15T00:20:09;6.93;;;3.57;;
4700;SDS011;8724;51.272;6.554;2024-02-15T00:22:37;3.67;;;3.30;;
4700;SDS011;8724;51.272;6.554;2024-02-15T00:25:07;3.43;;;2.73;;
4700;SDS011;8724;51.272;6.554;2024-02-15T00:27:37;3.90;;;3.03;;
4700;SDS011;8724;51.272;6.554;2024-02-15T00:30:08;6.80;;;4.30;;
4700;SDS011;8724;51.272;6.554;2024-02-15T00:32:39;4.67;;;3.10;;
4700;SDS011;8724;51.272;6.554;2024-02-15T00:35:07;4.47;;;3.57;;
4700;SDS011;8724;51.272;6.554;2024-02-15T00:37:37;5.83;;;3.40;;
4700;SDS011;8724;51.272;6.554;2024-02-15T00:40:06;7.70;;;3.50;;
4700;SDS011;8724;51.272;6.554;2024-02-15T00:42:35;4.73;;;3.30;;
4700;SDS011;8724;51.272;6.554;2024-02-15T00:45:03;4.13;;;3.17;;
4700;SDS011;8724;51.272;6.554;2024-02-15T00:47:32;5.23;;;3.13;;
4700;SDS011;8724;51.272;6.554;2024-02-15T00:50:01;4.10;;;2.70;;
4700;SDS011;8724;51.272;6.554;2024-02-15T00:52:30;4.73;;;2.90;;
4700;SDS011;8724;51.272;6.554;2024-02-15T00:54:58;3.53;;;2.90;;
4700;SDS011;8724;51.272;6.554;2024-02-15T00:57:26;7.03;;;3.00;;
4700;SDS011;8724;51.272;6.554;2024-02-15T00:59:54;4.87;;;2.70;;
4700;SDS011;8724;51.272;6.554;2024-02-15T01:02:22;2.70;;;2.50;;
4700;SDS011;8724;51.272;6.554;2024-02-15T01:04:51;3.97;;;2.70;;
4700;SDS011;8724;51.272;6.554;2024-02-15T01:07:21;2.80;;;2.60;;
4700;SDS011;8724;51.272;6.554;2024-02-15T01:09:53;5.03;;;2.60;;
4700;SDS011;8724;51.272;6.554;2024-02-15T01:12:21;2.83;;;2.57;;
4700;SDS011;8724;51.272;6.554;2024-02-15T01:14:50;3.63;;;2.17;;
4700;SDS011;8724;51.272;6.554;2024-02-15T01:17:18;4.13;;;2.57;;
4700;SDS011;8724;51.272;6.554;2024-02-15T01:19:46;2.47;;;2.27;;
4700;SDS011;8724;51.272;6.554;2024-02-15T01:22:14;7.20;;;2.97;;
4700;SDS011;8724;51.272;6.554;2024-02-15T01:24:43;2.87;;;2.67;;
4700;SDS011;8724;51.272;6.554;2024-02-15T01:27:12;5.03;;;2.37;;
4700;SDS011;8724;51.272;6.554;2024-02-15T01:29:40;2.00;;;1.90;;
4700;SDS011;8724;51.272;6.554;2024-02-15T01:32:28;3.87;;;2.13;;
4700;SDS011;8724;51.272;6.554;2024-02-15T01:34:56;4.67;;;2.30;;
4700;SDS011;8724;51.272;6.554;2024-02-15T01:37:24;1.90;;;1.63;;
4700;SDS011;8724;51.272;6.554;2024-02-15T01:39:53;4.77;;;2.73;;
4700;SDS011;8724;51.272;6.554;2024-02-15T01:42:21;2.70;;;2.07;;
4700;SDS011;8724;51.272;6.554;2024-02-15T01:44:49;3.27;;;2.37;;
4700;SDS011;8724;51.272;6.554;2024-02-15T01:47:19;6.13;;;2.67;;
4700;SDS011;8724;51.272;6.554;2024-02-15T01:49:49;4.40;;;2.93;;
4700;SDS011;8724;51.272;6.554;2024-02-15T01:52:17;7.33;;;2.50;;
4700;SDS011;8724;51.272;6.554;2024-02-15T01:54:46;3.80;;;2.60;;
4700;SDS011;8724;51.272;6.554;2024-02-15T01:57:15;5.63;;;2.40;;
4700;SDS011;8724;51.272;6.554;2024-02-15T01:59:47;4.83;;;2.20;;
4700;SDS011;8724;51.272;6.554;2024-02-15T02:02:18;3.43;;;2.53;;
4700;SDS011;8724;51.272;6.554;2024-02-15T02:04:48;2.80;;;1.90;;
4700;SDS011;8724;51.272;6.554;2024-02-15T02:07:16;5.30;;;2.10;;
4700;SDS011;8724;51.272;6.554;2024-02-15T02:09:45;2.13;;;1.87;;
4700;SDS011;8724;51.272;6.554;2024-02-15T02:12:16;3.83;;;1.93;;
4700;SDS011;8724;51.272;6.554;2024-02-15T02:14:45;3.40;;;1.50;;
4700;SDS011;8724;51.272;6.554;2024-02-15T02:17:13;3.23;;;2.43;;
4700;SDS011;8724;51.272;6.554;2024-02-15T02:19:41;2.97;;;2.00;;
4700;SDS011;8724;51.272;6.554;2024-02-15T02:22:10;2.87;;;2.00;;
4700;SDS011;8724;51.272;6.554;2024-02-15T02:24:40;3.97;;;2.20;;
4700;SDS011;8724;51.272;6.554;2024-02-15T02:27:21;5.77;;;2.83;;
4700;SDS011;8724;51.272;6.554;2024-02-15T02:29:50;4.90;;;2.27;;
4700;SDS011;8724;51.272;6.554;2024-02-15T02:32:19;4.63;;;2.20;;
4700;SDS011;8724;51.272;6.554;2024-02-15T02:34:47;3.27;;;2.10;;
4700;SDS011;8724;51.272;6.554;2024-02-15T02:37:15;2.53;;;1.97;;
4700;SDS011;8724;51.272;6.554;2024-02-15T02:39:44;4.40;;;2.57;;
4700;SDS011;8724;51.272;6.554;2024-02-15T02:42:13;5.43;;;2.73;;
4700;SDS011;8724;51.272;6.554;2024-02-15T02:44:41;4.37;;;2.40;;
4700;SDS011;8724;51.272;6.554;2024-02-15T02:47:09;3.90;;;1.93;;
4700;SDS011;8724;51.272;6.554;2024-02-15T02:49:38;6.73;;;2.10;;
4700;SDS011;8724;51.272;6.554;2024-02-15T02:52:06;5.30;;;2.20;;
4700;SDS011;8724;51.272;6.554;2024-02-15T02:54:35;3.33;;;2.20;;
4700;SDS011;8724;51.272;6.554;2024-02-15T02:57:03;4.30;;;2.00;;
4700;SDS011;8724;51.272;6.554;2024-02-15T02:59:34;3.30;;;2.50;;
4700;SDS011;8724;51.272;6.554;2024-02-15T03:02:06;3.40;;;1.80;;
4700;SDS011;8724;51.272;6.554;2024-02-15T03:04:35;5.33;;;2.07;;
4700;SDS011;8724;51.272;6.554;2024-02-15T03:07:05;3.20;;;2.10;;
4700;SDS011;8724;51.272;6.554;2024-02-15T03:09:33;4.60;;;2.17;;
4700;SDS011;8724;51.272;6.554;2024-02-15T03:12:03;3.90;;;1.90;;
4700;SDS011;8724;51.272;6.554;2024-02-15T03:14:32;3.60;;;2.30;;
4700;SDS011;8724;51.272;6.554;2024-02-15T03:17:03;5.77;;;2.10;;
4700;SDS011;8724;51.272;6.554;2024-02-15T03:19:32;3.90;;;1.80;;
4700;SDS011;8724;51.272;6.554;2024-02-15T03:22:00;5.07;;;2.40;;
4700;SDS011;8724;51.272;6.554;2024-02-15T03:24:28;4.03;;;2.20;;
4700;SDS011;8724;51.272;6.554;2024-02-15T03:26:56;3.27;;;1.53;;
4700;SDS011;8724;51.272;6.554;2024-02-15T03:29:24;2.80;;;1.80;;
4700;SDS011;8724;51.272;6.554;2024-02-15T03:31:53;3.13;;;1.80;;
4700;SDS011;8724;51.272;6.554;2024-02-15T03:34:23;4.00;;;2.00;;
4700;SDS011;8724;51.272;6.554;2024-02-15T03:36:52;3.73;;;1.97;;
4700;SDS011;8724;51.272;6.554;2024-02-15T03:39:20;2.10;;;1.90;;
4700;SDS011;8724;51.272;6.554;2024-02-15T03:41:50;3.73;;;2.33;;
4700;SDS011;8724;51.272;6.554;2024-02-15T03:44:20;2.80;;;1.87;;
4700;SDS011;8724;51.272;6.554;2024-02-15T03:46:48;3.97;;;2.10;;
4700;SDS011;8724;51.272;6.554;2024-02-15T03:49:17;6.97;;;2.20;;
4700;SDS011;8724;51.272;6.554;2024-02-15T03:51:47;3.57;;;2.10;;
4700;SDS011;8724;51.272;6.554;2024-02-15T03:54:15;1.70;;;1.60;;
4700;SDS011;8724;51.272;6.554;2024-02-15T03:56:47;3.17;;;2.10;;
4700;SDS011;8724;51.272;6.554;2024-02-15T03:59:18;4.00;;;2.20;;
4700;SDS011;8724;51.272;6.554;2024-02-15T04:01:51;2.63;;;2.10;;
4700;SDS011;8724;51.272;6.554;2024-02-15T04:04:20;4.70;;;1.40;;
4700;SDS011;8724;51.272;6.554;2024-02-15T04:06:50;3.77;;;2.03;;
4700;SDS011;8724;51.272;6.554;2024-02-15T04:09:19;1.87;;;1.40;;
4700;SDS011;8724;51.272;6.554;2024-02-15T04:11:47;5.93;;;2.10;;
4700;SDS011;8724;51.272;6.554;2024-02-15T04:14:19;3.10;;;1.60;;
4700;SDS011;8724;51.272;6.554;2024-02-15T04:16:47;4.83;;;1.40;;
4700;SDS011;8724;51.272;6.554;2024-02-15T04:19:15;1.40;;;1.13;;
4700;SDS011;8724;51.272;6.554;2024-02-15T04:21:46;3.17;;;1.40;;
4700;SDS011;8724;51.272;6.554;2024-02-15T04:24:15;3.63;;;1.70;;
4700;SDS011;8724;51.272;6.554;2024-02-15T04:26:44;2.83;;;1.83;;
4700;SDS011;8724;51.272;6.554;2024-02-15T04:29:14;3.23;;;1.53;;
4700;SDS011;8724;51.272;6.554;2024-02-15T04:31:44;2.20;;;1.90;;
4700;SDS011;8724;51.272;6.554;2024-02-15T04:34:15;2.30;;;1.60;;
4700;SDS011;8724;51.272;6.554;2024-02-15T04:36:45;3.97;;;1.70;;
4700;SDS011;8724;51.272;6.554;2024-02-15T04:39:17;4.63;;;1.90;;
4700;SDS011;8724;51.272;6.554;2024-02-15T04:41:50;2.80;;;1.87;;
4700;SDS011;8724;51.272;6.554;2024-02-15T04:44:19;2.03;;;1.60;;
4700;SDS011;8724;51.272;6.554;2024-02-15T04:46:48;2.60;;;1.90;;
4700;SDS011;8724;51.272;6.554;2024-02-15T04:49:16;2.97;;;2.10;;
4700;SDS011;8724;51.272;6.554;2024-02-15T04:51:45;2.37;;;1.90;;
4700;SDS011;8724;51.272;6.554;2024-02-15T04:54:13;3.13;;;2.40;;
4700;SDS011;8724;51.272;6.554;2024-02-15T04:56:43;1.73;;;1.60;;
4700;SDS011;8724;51.272;6.554;2024-02-15T04:59:12;3.10;;;2.20;;
4700;SDS011;8724;51.272;6.554;2024-02-15T05:01:42;5.00;;;2.10;;
4700;SDS011;8724;51.272;6.554;2024-02-15T05:04:10;2.80;;;1.63;;
4700;SDS011;8724;51.272;6.554;2024-02-15T05:06:39;4.00;;;2.07;;
4700;SDS011;8724;51.272;6.554;2024-02-15T05:09:08;3.10;;;1.80;;
4700;SDS011;8724;51.272;6.554;2024-02-15T05:11:37;2.67;;;1.70;;
4700;SDS011;8724;51.272;6.554;2024-02-15T05:14:09;1.53;;;1.43;;
4700;SDS011;8724;51.272;6.554;2024-02-15T05:16:37;2.57;;;1.50;;
4700;SDS011;8724;51.272;6.554;2024-02-15T05:19:08;3.67;;;1.70;;
4700;SDS011;8724;51.272;6.554;2024-02-15T05:21:37;4.77;;;1.77;;
4700;SDS011;8724;51.272;6.554;2024-02-15T05:24:07;3.40;;;1.77;;
4700;SDS011;8724;51.272;6.554;2024-02-15T05:26:35;2.70;;;1.60;;
4700;SDS011;8724;51.272;6.554;2024-02-15T05:29:03;1.80;;;1.27;;
4700;SDS011;8724;51.272;6.554;2024-02-15T05:31:33;1.47;;;1.27;;
4700;SDS011;8724;51.272;6.554;2024-02-15T05:34:05;2.50;;;1.40;;
4700;SDS011;8724;51.272;6.554;2024-02-15T05:36:35;1.73;;;1.63;;
4700;SDS011;8724;51.272;6.554;2024-02-15T05:39:04;1.63;;;1.53;;
4700;SDS011;8724;51.272;6.554;2024-02-15T05:41:32;1.70;;;1.60;;
4700;SDS011;8724;51.272;6.554;2024-02-15T05:44:01;1.90;;;1.33;;
4700;SDS011;8724;51.272;6.554;2024-02-15T05:46:31;1.30;;;1.20;;
4700;SDS011;8724;51.272;6.554;2024-02-15T05:49:04;1.70;;;1.60;;
4700;SDS011;8724;51.272;6.554;2024-02-15T05:51:33;1.73;;;1.50;;
4700;SDS011;8724;51.272;6.554;2024-02-15T05:54:01;2.97;;;1.43;;
4700;SDS011;8724;51.272;6.554;2024-02-15T05:56:29;1.60;;;1.47;;
4700;SDS011;8724;51.272;6.554;2024-02-15T05:58:58;1.70;;;1.33;;
4700;SDS011;8724;51.272;6.554;2024-02-15T06:01:28;2.60;;;1.90;;
4700;SDS011;8724;51.272;6.554;2024-02-15T06:03:57;4.50;;;1.30;;
4700;SDS011;8724;51.272;6.554;2024-02-15T06:06:28;3.90;;;1.77;;
4700;SDS011;8724;51.272;6.554;2024-02-15T06:08:56;1.83;;;1.30;;
4700;SDS011;8724;51.272;6.554;2024-02-15T06:11:26;3.13;;;1.70;;
4700;SDS011;8724;51.272;6.554;2024-02-15T06:13:55;4.90;;;1.70;;
4700;SDS011;8724;51.272;6.554;2024-02-15T06:16:23;4.10;;;1.63;;
4700;SDS011;8724;51.272;6.554;2024-02-15T06:18:51;2.47;;;1.40;;
4700;SDS011;8724;51.272;6.554;2024-02-15T06:21:19;1.43;;;1.30;;
4700;SDS011;8724;51.272;6.554;2024-02-15T06:23:49;1.73;;;1.40;;
4700;SDS011;8724;51.272;6.554;2024-02-15T06:26:17;3.03;;;1.77;;
4700;SDS011;8724;51.272;6.554;2024-02-15T06:28:47;2.80;;;1.87;;
4700;SDS011;8724;51.272;6.554;2024-02-15T06:31:47;4.90;;;1.87;;
4700;SDS011;8724;51.272;6.554;2024-02-15T06:34:48;2.70;;;1.60;;
4700;SDS011;8724;51.272;6.554;2024-02-15T06:37:36;1.83;;;1.43;;
4700;SDS011;8724;51.272;6.554;2024-02-15T06:40:24;5.47;;;1.70;;
4700;SDS011;8724;51.272;6.554;2024-02-15T06:42:52;5.97;;;2.20;;
4700;SDS011;8724;51.272;6.554;2024-02-15T06:45:20;3.20;;;1.70;;
4700;SDS011;8724;51.272;6.554;2024-02-15T06:47:48;2.13;;;1.40;;
4700;SDS011;8724;51.272;6.554;2024-02-15T06:50:16;6.93;;;1.90;;
4700;SDS011;8724;51.272;6.554;2024-02-15T06:52:45;5.07;;;2.10;;
4700;SDS011;8724;51.272;6.554;2024-02-15T06:55:15;3.07;;;1.50;;
4700;SDS011;8724;51.272;6.554;2024-02-15T06:57:46;4.07;;;1.97;;
4700;SDS011;8724;51.272;6.554;2024-02-15T07:00:15;2.03;;;1.70;;
4700;SDS011;8724;51.272;6.554;2024-02-15T07:02:45;2.00;;;1.57;;
4700;SDS011;8724;51.272;6.554;2024-02-15T07:05:14;3.27;;;1.40;;
4700;SDS011;8724;51.272;6.554;2024-02-15T07:07:43;3.17;;;2.10;;
4700;SDS011;8724;51.272;6.554;2024-02-15T07:10:11;1.90;;;1.73;;
4700;SDS011;8724;51.272;6.554;2024-02-15T07:12:43;1.70;;;1.43;;
4700;SDS011;8724;51.272;6.554;2024-02-15T07:15:13;3.80;;;1.97;;
4700;SDS011;8724;51.272;6.554;2024-02-15T07:17:43;2.30;;;2.10;;
4700;SDS011;8724;51.272;6.554;2024-02-15T07:20:12;2.93;;;1.80;;
4700;SDS011;8724;51.272;6.554;2024-02-15T07:22:43;2.47;;;2.00;;
4700;SDS011;8724;51.272;6.554;2024-02-15T07:25:12;5.70;;;2.07;;
4700;SDS011;8724;51.272;6.554;2024-02-15T07:27:40;3.50;;;1.70;;
4700;SDS011;8724;51.272;6.554;2024-02-15T07:30:09;3.83;;;1.73;;
4700;SDS011;8724;51.272;6.554;2024-02-15T07:32:39;3.47;;;1.80;;
4700;SDS011;8724;51.272;6.554;2024-02-15T07:35:07;2.43;;;1.93;;
4700;SDS011;8724;51.272;6.554;2024-02-15T07:37:36;3.97;;;2.23;;
4700;SDS011;8724;51.272;6.554;2024-02-15T07:40:05;2.53;;;1.50;;
4700;SDS011;8724;51.272;6.554;2024-02-15T07:42:35;4.87;;;2.40;;
4700;SDS011;8724;51.272;6.554;2024-02-15T07:45:03;3.37;;;1.77;;
4700;SDS011;8724;51.272;6.554;2024-02-15T07:47:33;4.20;;;1.90;;
4700;SDS011;8724;51.272;6.554;2024-02-15T07:50:02;2.80;;;1.87;;
4700;SDS011;8724;51.272;6.554;2024-02-15T07:52:32;2.40;;;1.63;;
4700;SDS011;8724;51.272;6.554;2024-02-15T07:55:00;3.53;;;1.73;;
4700;SDS011;8724;51.272;6.554;2024-02-15T07:57:35;3.57;;;2.00;;
4700;SDS011;8724;51.272;6.554;2024-02-15T08:00:03;2.70;;;1.47;;
4700;SDS011;8724;51.272;6.554;2024-02-15T08:02:37;2.47;;;1.57;;
4700;SDS011;8724;51.272;6.554;2024-02-15T08:05:09;5.43;;;2.03;;
4700;SDS011;8724;51.272;6.554;2024-02-15T08:07:41;5.70;;;2.10;;
4700;SDS011;8724;51.272;6.554;2024-02-15T08:10:10;1.87;;;1.60;;
4700;SDS011;8724;51.272;6.554;2024-02-15T08:12:40;2.13;;;1.70;;
4700;SDS011;8724;51.272;6.554;2024-02-15T08:15:09;3.17;;;1.97;;
4700;SDS011;8724;51.272;6.554;2024-02-15T08:17:39;2.13;;;1.63;;
4700;SDS011;8724;51.272;6.554;2024-02-15T08:20:10;2.63;;;2.17;;
4700;SDS011;8724;51.272;6.554;2024-02-15T08:22:39;1.63;;;1.53;;
4700;SDS011;8724;51.272;6.554;2024-02-15T08:25:09;4.60;;;1.97;;
4700;SDS011;8724;51.272;6.554;2024-02-15T08:27:38;3.00;;;2.17;;
4700;SDS011;8724;51.272;6.554;2024-02-15T08:30:09;2.30;;;1.70;;
4700;SDS011;8724;51.272;6.554;2024-02-15T08:32:39;3.00;;;1.60;;
4700;SDS011;8724;51.272;6.554;2024-02-15T08:35:10;2.17;;;1.97;;
4700;SDS011;8724;51.272;6.554;2024-02-15T08:37:40;1.93;;;1.50;;
4700;SDS011;8724;51.272;6.554;2024-02-15T08:40:10;4.70;;;2.00;;
4700;SDS011;8724;51.272;6.554;2024-02-15T08:42:40;3.83;;;2.20;;
4700;SDS011;8724;51.272;6.554;2024-02-15T08:45:09;4.40;;;2.23;;
4700;SDS011;8724;51.272;6.554;2024-02-15T08:47:39;3.30;;;2.07;;
4700;SDS011;8724;51.272;6.554;2024-02-15T08:50:09;6.10;;;2.50;;
4700;SDS011;8724;51.272;6.554;2024-02-15T08:52:39;4.60;;;2.13;;
4700;SDS011;8724;51.272;6.554;2024-02-15T08:55:09;2.37;;;1.97;;
4700;SDS011;8724;51.272;6.554;2024-02-15T08:57:41;3.23;;;2.17;;
4700;SDS011;8724;51.272;6.554;2024-02-15T09:00:11;4.70;;;1.90;;
4700;SDS011;8724;51.272;6.554;2024-02-15T09:02:42;5.80;;;2.17;;
4700;SDS011;8724;51.272;6.554;2024-02-15T09:05:12;2.00;;;1.80;;
4700;SDS011;8724;51.272;6.554;2024-02-15T09:07:41;5.77;;;2.00;;
4700;SDS011;8724;51.272;6.554;2024-02-15T09:10:10;3.20;;;1.80;;
4700;SDS011;8724;51.272;6.554;2024-02-15T09:12:38;3.47;;;1.90;;
4700;SDS011;8724;51.272;6.554;2024-02-15T09:15:08;2.40;;;2.00;;
4700;SDS011;8724;51.272;6.554;2024-02-15T09:17:37;1.83;;;1.70;;
4700;SDS011;8724;51.272;6.554;2024-02-15T09:20:07;3.17;;;1.63;;
4700;SDS011;8724;51.272;6.554;2024-02-15T09:22:42;3.27;;;1.77;;
4700;SDS011;8724;51.272;6.554;2024-02-15T09:25:13;3.07;;;1.53;;
4700;SDS011;8724;51.272;6.554;2024-02-15T09:27:43;5.70;;;2.23;;
4700;SDS011;8724;51.272;6.554;2024-02-15T09:30:12;2.67;;;2.00;;
4700;SDS011;8724;51.272;6.554;2024-02-15T09:32:41;3.43;;;1.90;;
4700;SDS011;8724;51.272;6.554;2024-02-15T09:35:10;4.23;;;2.13;;
4700;SDS011;8724;51.272;6.554;2024-02-15T09:37:44;3.50;;;2.10;;
4700;SDS011;8724;51.272;6.554;2024-02-15T09:40:15;2.10;;;1.97;;
4700;SDS011;8724;51.272;6.554;2024-02-15T09:42:44;2.73;;;1.97;;
4700;SDS011;8724;51.272;6.554;2024-02-15T09:45:14;2.23;;;1.57;;
4700;SDS011;8724;51.272;6.554;2024-02-15T09:47:44;6.63;;;1.87;;
4700;SDS011;8724;51.272;6.554;2024-02-15T09:50:13;2.60;;;1.83;;
4700;SDS011;8724;51.272;6.554;2024-02-15T09:52:45;7.67;;;1.90;;
4700;SDS011;8724;51.272;6.554;2024-02-15T09:55:14;2.20;;;2.00;;
4700;SDS011;8724;51.272;6.554;2024-02-15T09:57:44;1.90;;;1.67;;
4700;SDS011;8724;51.272;6.554;2024-02-15T10:00:14;5.30;;;1.90;;
4700;SDS011;8724;51.272;6.554;2024-02-15T10:02:44;4.00;;;1.70;;
4700;SDS011;8724;51.272;6.554;2024-02-15T10:05:16;2.10;;;1.90;;
4700;SDS011;8724;51.272;6.554;2024-02-15T10:07:46;1.67;;;1.43;;
4700;SDS011;8724;51.272;6.554;2024-02-15T10:10:15;2.60;;;2.07;;
4700;SDS011;8724;51.272;6.554;2024-02-15T10:12:44;2.53;;;1.80;;
4700;SDS011;8724;51.272;6.554;2024-02-15T10:18:00;2.53;;;1.57;;
4700;SDS011;8724;51.272;6.554;2024-02-15T10:20:29;2.37;;;1.73;;
4700;SDS011;8724;51.272;6.554;2024-02-15T10:23:11;2.93;;;1.80;;
4700;SDS011;8724;51.272;6.554;2024-02-15T10:25:44;2.20;;;1.63;;
4700;SDS011;8724;51.272;6.554;2024-02-15T10:28:12;3.87;;;1.40;;
4700;SDS011;8724;51.272;6.554;2024-02-15T10:30:49;1.83;;;1.73;;
4700;SDS011;8724;51.272;6.554;2024-02-15T10:33:19;3.67;;;1.60;;
4700;SDS011;8724;51.272;6.554;2024-02-15T10:36:04;2.20;;;1.70;;
4700;SDS011;8724;51.272;6.554;2024-02-15T10:38:35;1.20;;;1.10;;
4700;SDS011;8724;51.272;6.554;2024-02-15T10:41:03;2.60;;;2.13;;
4700;SDS011;8724;51.272;6.554;2024-02-15T10:43:32;2.63;;;1.83;;
4700;SDS011;8724;51.272;6.554;2024-02-15T10:46:00;1.70;;;1.60;;
4700;SDS011;8724;51.272;6.554;2024-02-15T10:48:29;3.43;;;1.77;;
4700;SDS011;8724;51.272;6.554;2024-02-15T10:50:58;6.60;;;2.00;;
4700;SDS011;8724;51.272;6.554;2024-02-15T10:53:30;2.10;;;1.50;;
4700;SDS011;8724;51.272;6.554;2024-02-15T10:56:03;2.20;;;1.70;;
4700;SDS011;8724;51.272;6.554;2024-02-15T10:58:50;2.57;;;1.70;;
4700;SDS011;8724;51.272;6.554;2024-02-15T11:01:23;4.33;;;2.30;;
4700;SDS011;8724;51.272;6.554;2024-02-15T11:03:55;2.23;;;1.70;;
4700;SDS011;8724;51.272;6.554;2024-02-15T11:06:27;3.80;;;2.20;;
4700;SDS011;8724;51.272;6.554;2024-02-15T11:08:57;4.63;;;2.17;;
4700;SDS011;8724;51.272;6.554;2024-02-15T11:11:27;1.77;;;1.60;;
4700;SDS011;8724;51.272;6.554;2024-02-15T11:16:52;2.53;;;1.60;;
4700;SDS011;8724;51.272;6.554;2024-02-15T11:22:14;2.40;;;1.40;;
4700;SDS011;8724;51.272;6.554;2024-02-15T11:24:46;2.00;;;1.80;;
4700;SDS011;8724;51.272;6.554;2024-02-15T11:27:26;1.63;;;1.53;;
4700;SDS011;8724;51.272;6.554;2024-02-15T11:29:55;4.97;;;1.47;;
4700;SDS011;8724;51.272;6.554;2024-02-15T11:32:36;1.30;;;1.20;;
4700;SDS011;8724;51.272;6.554;2024-02-15T11:35:06;1.87;;;1.20;;
4700;SDS011;8724;51.272;6.554;2024-02-15T11:37:58;5.43;;;1.60;;
4700;SDS011;8724;51.272;6.554;2024-02-15T11:40:27;3.40;;;1.33;;
4700;SDS011;8724;51.272;6.554;2024-02-15T11:42:58;2.57;;;1.90;;
4700;SDS011;8724;51.272;6.554;2024-02-15T11:45:27;2.10;;;1.27;;
4700;SDS011;8724;51.272;6.554;2024-02-15T11:48:00;2.40;;;1.50;;
4700;SDS011;8724;51.272;6.554;2024-02-15T11:50:30;4.00;;;1.37;;
4700;SDS011;8724;51.272;6.554;2024-02-15T11:53:04;3.60;;;1.80;;
4700;SDS011;8724;51.272;6.554;2024-02-15T11:55:37;3.63;;;1.53;;
4700;SDS011;8724;51.272;6.554;2024-02-15T11:58:07;1.53;;;1.30;;
4700;SDS011;8724;51.272;6.554;2024-02-15T12:00:48;2.17;;;1.53;;
4700;SDS011;8724;51.272;6.554;2024-02-15T12:03:34;2.23;;;1.60;;
4700;SDS011;8724;51.272;6.554;2024-02-15T12:06:32;1.83;;;1.50;;
4700;SDS011;8724;51.272;6.554;2024-02-15T12:09:18;1.27;;;1.17;;
4700;SDS011;8724;51.272;6.554;2024-02-15T12:12:05;1.60;;;1.40;;
4700;SDS011;8724;51.272;6.554;2024-02-15T12:14:58;1.20;;;1.10;;
4700;SDS011;8724;51.272;6.554;2024-02-15T12:17:44;2.67;;;1.77;;
4700;SDS011;8724;51.272;6.554;2024-02-15T12:20:30;3.33;;;2.10;;
4700;SDS011;8724;51.272;6.554;2024-02-15T12:22:59;2.93;;;1.73;;
4700;SDS011;8724;51.272;6.554;2024-02-15T12:25:28;4.73;;;1.43;;
4700;SDS011;8724;51.272;6.554;2024-02-15T12:28:00;2.20;;;1.60;;
4700;SDS011;8724;51.272;6.554;2024-02-15T12:30:33;5.27;;;1.73;;
4700;SDS011;8724;51.272;6.554;2024-02-15T12:33:11;2.43;;;1.70;;
4700;SDS011;8724;51.272;6.554;2024-02-15T12:35:46;2.57;;;1.17;;
4700;SDS011;8724;51.272;6.554;2024-02-15T12:38:15;4.00;;;1.60;;
4700;SDS011;8724;51.272;6.554;2024-02-15T12:40:44;1.30;;;1.10;;
4700;SDS011;8724;51.272;6.554;2024-02-15T12:43:15;1.97;;;1.40;;
4700;SDS011;8724;51.272;6.554;2024-02-15T12:45:44;2.90;;;1.77;;
4700;SDS011;8724;51.272;6.554;2024-02-15T12:48:12;3.20;;;1.33;;
4700;SDS011;8724;51.272;6.554;2024-02-15T12:50:42;1.50;;;1.40;;
4700;SDS011;8724;51.272;6.554;2024-02-15T12:53:10;1.27;;;0.90;;
4700;SDS011;8724;51.272;6.554;2024-02-15T12:55:39;1.97;;;1.50;;
4700;SDS011;8724;51.272;6.554;2024-02-15T12:58:12;1.23;;;1.13;;
4700;SDS011;8724;51.272;6.554;2024-02-15T13:00:41;2.93;;;1.60;;
4700;SDS011;8724;51.272;6.554;2024-02-15T13:03:11;7.03;;;1.93;;
4700;SDS011;8724;51.272;6.554;2024-02-15T13:05:41;3.60;;;1.93;;
4700;SDS011;8724;51.272;6.554;2024-02-15T13:08:10;1.80;;;1.30;;
4700;SDS011;8724;51.272;6.554;2024-02-15T13:10:41;2.40;;;1.17;;
4700;SDS011;8724;51.272;6.554;2024-02-15T13:13:10;1.20;;;1.10;;
4700;SDS011;8724;51.272;6.554;2024-02-15T13:15:40;2.80;;;1.13;;
4700;SDS011;8724;51.272;6.554;2024-02-15T13:18:11;1.77;;;1.13;;
4700;SDS011;8724;51.272;6.554;2024-02-15T13:20:41;1.07;;;1.00;;
4700;SDS011;8724;51.272;6.554;2024-02-15T13:23:10;1.60;;;1.10;;
4700;SDS011;8724;51.272;6.554;2024-02-15T13:25:46;2.90;;;1.40;;
4700;SDS011;8724;51.272;6.554;2024-02-15T13:28:14;1.40;;;1.30;;
4700;SDS011;8724;51.272;6.554;2024-02-15T13:30:45;2.60;;;1.20;;
4700;SDS011;8724;51.272;6.554;2024-02-15T13:33:14;1.47;;;1.37;;
4700;SDS011;8724;51.272;6.554;2024-02-15T13:35:43;2.90;;;1.50;;
4700;SDS011;8724;51.272;6.554;2024-02-15T13:38:12;1.73;;;1.20;;
4700;SDS011;8724;51.272;6.554;2024-02-15T13:40:48;2.70;;;1.30;;
4700;SDS011;8724;51.272;6.554;2024-02-15T13:43:17;1.93;;;1.50;;
4700;SDS011;8724;51.272;6.554;2024-02-15T13:45:46;2.30;;;1.40;;
4700;SDS011;8724;51.272;6.554;2024-02-15T13:48:16;1.67;;;1.00;;
4700;SDS011;8724;51.272;6.554;2024-02-15T13:50:45;1.70;;;1.30;;
4700;SDS011;8724;51.272;6.554;2024-02-15T13:53:13;2.30;;;1.30;;
4700;SDS011;8724;51.272;6.554;2024-02-15T13:55:41;1.43;;;0.90;;
4700;SDS011;8724;51.272;6.554;2024-02-15T13:58:09;1.20;;;1.10;;
4700;SDS011;8724;51.272;6.554;2024-02-15T14:00:40;1.20;;;1.10;;
4700;SDS011;8724;51.272;6.554;2024-02-15T14:03:10;1.17;;;1.07;;
4700;SDS011;8724;51.272;6.554;2024-02-15T14:05:43;0.80;;;0.80;;
4700;SDS011;8724;51.272;6.554;2024-02-15T14:08:12;1.77;;;1.17;;
4700;SDS011;8724;51.272;6.554;2024-02-15T14:10:42;1.70;;;0.97;;
4700;SDS011;8724;51.272;6.554;2024-02-15T14:13:11;1.20;;;1.10;;
4700;SDS011;8724;51.272;6.554;2024-02-15T14:15:40;1.13;;;1.03;;
4700;SDS011;8724;51.272;6.554;2024-02-15T14:18:10;3.67;;;1.27;;
4700;SDS011;8724;51.272;6.554;2024-02-15T14:20:42;1.43;;;1.13;;
4700;SDS011;8724;51.272;6.554;2024-02-15T14:23:13;1.03;;;1.00;;
4700;SDS011;8724;51.272;6.554;2024-02-15T14:25:41;1.97;;;1.37;;
4700;SDS011;8724;51.272;6.554;2024-02-15T14:28:11;1.33;;;1.23;;
4700;SDS011;8724;51.272;6.554;2024-02-15T14:30:40;2.23;;;1.30;;
4700;SDS011;8724;51.272;6.554;2024-02-15T14:33:25;2.10;;;1.30;;
4700;SDS011;8724;51.272;6.554;2024-02-15T14:35:58;1.67;;;1.20;;
4700;SDS011;8724;51.272;6.554;2024-02-15T14:38:27;1.07;;;0.97;;
4700;SDS011;8724;51.272;6.554;2024-02-15T14:40:56;0.90;;;0.90;;
4700;SDS011;8724;51.272;6.554;2024-02-15T14:43:26;1.13;;;0.90;;
4700;SDS011;8724;51.272;6.554;2024-02-15T14:45:55;1.90;;;1.30;;
4700;SDS011;8724;51.272;6.554;2024-02-15T14:48:24;1.33;;;1.13;;
4700;SDS011;8724;51.272;6.554;2024-02-15T14:50:53;1.27;;;1.10;;
4700;SDS011;8724;51.272;6.554;2024-02-15T14:53:24;1.37;;;1.00;;
4700;SDS011;8724;51.272;6.554;2024-02-15T14:55:53;1.43;;;1.00;;
4700;SDS011;8724;51.272;6.554;2024-02-15T14:58:21;1.20;;;1.10;;
4700;SDS011;8724;51.272;6.554;2024-02-15T15:00:50;1.30;;;1.20;;
4700;SDS011;8724;51.272;6.554;2024-02-15T15:03:29;1.13;;;0.93;;
4700;SDS011;8724;51.272;6.554;2024-02-15T15:05:59;4.13;;;1.40;;
4700;SDS011;8724;51.272;6.554;2024-02-15T15:08:47;1.90;;;1.33;;
4700;SDS011;8724;51.272;6.554;2024-02-15T15:11:32;1.57;;;1.23;;
4700;SDS011;8724;51.272;6.554;2024-02-15T15:14:18;2.20;;;1.27;;
4700;SDS011;8724;51.272;6.554;2024-02-15T15:16:47;3.43;;;1.30;;
4700;SDS011;8724;51.272;6.554;2024-02-15T15:19:15;1.47;;;1.37;;
4700;SDS011;8724;51.272;6.554;2024-02-15T15:21:44;1.60;;;1.47;;
4700;SDS011;8724;51.272;6.554;2024-02-15T15:24:14;2.30;;;1.23;;
4700;SDS011;8724;51.272;6.554;2024-02-15T15:26:42;3.33;;;1.50;;
4700;SDS011;8724;51.272;6.554;2024-02-15T15:29:10;2.03;;;1.53;;
4700;SDS011;8724;51.272;6.554;2024-02-15T15:31:40;2.80;;;2.00;;
4700;SDS011;8724;51.272;6.554;2024-02-15T15:34:08;1.87;;;1.60;;
4700;SDS011;8724;51.272;6.554;2024-02-15T15:36:37;2.97;;;1.83;;
4700;SDS011;8724;51.272;6.554;2024-02-15T15:39:05;1.83;;;1.63;;
4700;SDS011;8724;51.272;6.554;2024-02-15T15:41:37;3.53;;;1.60;;
4700;SDS011;8724;51.272;6.554;2024-02-15T15:44:06;1.97;;;1.50;;